createdAt,value
2019-04-22T00:03:39.000Z,36.879
2019-04-22T00:23:39.000Z,37.169
2019-04-22T00:33:39.000Z,36.971
2019-04-22T00:43:39.000Z,37.063
2019-04-22T00:53:39.000Z,37.068
2019-04-22T01:03:39.000Z,37.098
2019-04-22T01:13:39.000Z,37.041
2019-04-22T01:23:39.000Z,37.275
2019-04-22T01:33:39.000Z,37.25
2019-04-22T01:43:39.000Z,37.333
2019-04-22T01:53:39.000Z,37.263
2019-04-22T02:03:39.000Z,37.391
2019-04-22T02:13:39.000Z,37.518
2019-04-22T02:23:39.000Z,37.636
2019-04-22T02:33:39.000Z,37.677
2019-04-22T03:03:39.000Z,37.732
2019-04-22T03:13:39.000Z,37.837
2019-04-22T03:23:42.000Z,37.814
2019-04-22T03:43:39.000Z,37.723
2019-04-22T03:53:39.000Z,37.829
2019-04-22T04:13:40.000Z,37.782
2019-04-22T04:33:40.000Z,37.926
2019-04-22T04:43:40.000Z,37.957
2019-04-22T04:53:40.000Z,37.977
2019-04-22T05:13:40.000Z,38.016
2019-04-22T05:33:41.000Z,37.983
2019-04-22T05:43:41.000Z,37.747
2019-04-22T05:53:40.000Z,37.522
2019-04-22T06:13:40.000Z,37.307
2019-04-22T06:33:40.000Z,37.075
2019-04-22T06:43:42.000Z,37.13
2019-04-22T06:53:40.000Z,37.216
2019-04-22T07:03:40.000Z,37.334
2019-04-22T07:13:40.000Z,37.164
2019-04-22T07:23:40.000Z,37.47
2019-04-22T07:33:40.000Z,36.933
2019-04-22T07:43:40.000Z,36.231
2019-04-22T07:53:40.000Z,36.38
2019-04-22T08:03:41.000Z,36.481
2019-04-22T08:13:40.000Z,36.248
2019-04-22T08:23:40.000Z,36.163
2019-04-22T08:43:40.000Z,35.761
2019-04-22T08:53:40.000Z,35.595
2019-04-22T09:13:40.000Z,35.554
2019-04-22T09:33:40.000Z,35.501
2019-04-22T10:03:40.000Z,35.426
2019-04-22T10:13:43.000Z,35.454
2019-04-22T10:33:44.000Z,35.51
2019-04-22T10:53:42.000Z,35.502
2019-04-22T11:03:40.000Z,35.377
2019-04-22T11:13:42.000Z,35.449
2019-04-22T11:23:40.000Z,35.505
2019-04-22T11:33:40.000Z,35.529
2019-04-22T11:43:41.000Z,34.879
2019-04-22T11:53:40.000Z,34.946
2019-04-22T12:13:41.000Z,34.797
2019-04-22T12:23:41.000Z,34.843
2019-04-22T12:33:41.000Z,34.877
2019-04-22T13:03:41.000Z,35.143
2019-04-22T13:13:41.000Z,35.388
2019-04-22T13:23:41.000Z,35.364
2019-04-22T13:33:41.000Z,35.476
2019-04-22T13:43:41.000Z,35.554
2019-04-22T13:53:41.000Z,35.579
2019-04-22T14:03:43.000Z,35.203
2019-04-22T14:13:41.000Z,35.485
2019-04-22T14:23:43.000Z,35.242
2019-04-22T14:33:42.000Z,35.16
2019-04-22T15:03:41.000Z,34.884
2019-04-22T15:13:41.000Z,34.413
2019-04-22T15:23:41.000Z,34.652
2019-04-22T15:33:41.000Z,34.348
2019-04-22T15:43:41.000Z,34.302
2019-04-22T15:53:41.000Z,33.979
2019-04-22T16:03:41.000Z,34.11
2019-04-22T16:13:41.000Z,30.805
2019-04-22T16:23:41.000Z,32.666
2019-04-22T16:33:43.000Z,32.843
2019-04-22T16:43:42.000Z,33.31
2019-04-22T16:53:41.000Z,33.715
2019-04-22T17:13:41.000Z,34.039
2019-04-22T17:23:41.000Z,34.436
2019-04-22T17:33:41.000Z,34.683
2019-04-22T17:43:41.000Z,34.926
2019-04-22T17:53:41.000Z,35.01
2019-04-22T18:03:44.000Z,35.207
2019-04-22T18:13:42.000Z,34.956
2019-04-22T18:23:41.000Z,35.478
2019-04-22T18:33:41.000Z,36.026
2019-04-22T18:43:41.000Z,36.217
2019-04-22T18:53:41.000Z,36.091
2019-04-22T19:03:43.000Z,36.057
2019-04-22T19:13:41.000Z,37.272
2019-04-22T19:23:41.000Z,37.246
2019-04-22T19:33:41.000Z,37.449
2019-04-22T19:43:41.000Z,37.561
2019-04-22T19:53:42.000Z,37.578
2019-04-22T20:03:41.000Z,37.576
2019-04-22T20:13:43.000Z,37.64
2019-04-22T20:23:41.000Z,37.564
2019-04-22T20:33:42.000Z,37.769
2019-04-22T20:43:44.000Z,38.052
2019-04-22T20:53:43.000Z,38.245
2019-04-22T21:03:42.000Z,38.132
2019-04-22T21:13:43.000Z,38.353
2019-04-22T21:23:42.000Z,38.765
2019-04-22T21:33:42.000Z,38.694
2019-04-22T21:43:42.000Z,38.666
2019-04-22T21:53:42.000Z,38.422
2019-04-22T22:03:42.000Z,38.452
2019-04-22T22:13:42.000Z,38.425
2019-04-22T22:23:42.000Z,38.411
2019-04-22T22:33:42.000Z,38.492
2019-04-22T22:43:42.000Z,38.432
2019-04-22T22:53:44.000Z,38.503
2019-04-22T23:03:42.000Z,38.522
2019-04-22T23:13:42.000Z,38.593
2019-04-22T23:23:42.000Z,38.459
2019-04-22T23:33:42.000Z,38.477
2019-04-22T23:43:42.000Z,38.495
2019-04-22T23:53:42.000Z,38.469
